Time;durP1;ratioP1;P1;durP2;ratioP2;P2;SDS_P1;SDS_P2;PMS_P1;PMS_P2;Temp;Humidity;BMP_temperature;BMP_pressure;BME280_temperature;BME280_humidity;BME280_pressure;Samples;Min_cycle;Max_cycle;Signal;HPM_P1;HPM_P2
2022/04/07 14:13:20;;;;;;;3.40;1.70;;;9.10;86.90;;;;;;3802109;37;20079;-64
2022/04/07 14:15:51;;;;;;;2.65;1.80;;;9.00;88.50;;;;;;4382907;32;20070;-63
2022/04/07 14:18:19;;;;;;;5.37;1.75;;;9.00;89.00;;;;;;4374129;32;20431;-64
2022/04/07 14:20:46;;;;;;;6.07;2.00;;;9.00;88.60;;;;;;4362302;32;20085;-67
2022/04/07 14:23:15;;;;;;;2.00;1.67;;;9.00;88.70;;;;;;4364601;32;20077;-64
2022/04/07 14:25:42;;;;;;;3.67;1.67;;;8.90;89.00;;;;;;4372914;32;20165;-64
2022/04/07 14:28:10;;;;;;;4.43;1.77;;;8.90;88.60;;;;;;4363264;32;20153;-64
2022/04/07 14:30:37;;;;;;;2.97;1.58;;;8.80;89.10;;;;;;4349558;32;20758;-65
2022/04/07 14:33:05;;;;;;;5.45;1.77;;;8.80;88.90;;;;;;4369867;32;20076;-66
2022/04/07 14:35:32;;;;;;;2.85;1.80;;;8.80;88.50;;;;;;4374090;32;20130;-64
2022/04/07 14:38:00;;;;;;;5.53;1.65;;;8.80;88.20;;;;;;4379254;32;20153;-66
2022/04/07 14:40:28;;;;;;;2.25;1.90;;;8.90;88.20;;;;;;4371285;32;20534;-68
2022/04/07 14:42:55;;;;;;;5.07;1.87;;;8.80;87.90;;;;;;4355454;32;20150;-64
2022/04/07 14:45:22;;;;;;;5.43;2.08;;;8.80;87.90;;;;;;4363718;32;20162;-69
2022/04/07 14:47:48;;;;;;;3.53;2.10;;;8.90;87.30;;;;;;4344240;32;20098;-60
2022/04/07 14:50:15;;;;;;;2.83;1.60;;;8.80;88.10;;;;;;4363248;32;20121;-60
2022/04/07 14:52:42;;;;;;;5.50;1.98;;;8.80;87.20;;;;;;4359973;32;20090;-57
2022/04/07 14:55:08;;;;;;;3.08;1.62;;;8.80;87.60;;;;;;4347469;32;20155;-60
2022/04/07 14:57:35;;;;;;;4.12;1.37;;;8.80;87.20;;;;;;4372973;32;20586;-61
2022/04/07 15:00:02;;;;;;;6.65;2.00;;;8.80;86.70;;;;;;4369374;32;20650;-60
2022/04/07 15:02:28;;;;;;;2.55;1.40;;;8.70;87.00;;;;;;4357406;32;20160;-60
2022/04/07 15:04:55;;;;;;;5.78;1.90;;;8.80;87.30;;;;;;4357387;32;20091;-61
2022/04/07 15:07:21;;;;;;;5.00;1.80;;;8.70;87.70;;;;;;4357327;32;20519;-60
2022/04/07 15:09:48;;;;;;;6.35;1.98;;;8.60;87.10;;;;;;4343600;32;20596;-60
2022/04/07 15:12:14;;;;;;;8.75;1.50;;;8.70;88.70;;;;;;4343878;32;20074;-60
2022/04/07 15:14:41;;;;;;;5.18;1.35;;;8.70;87.60;;;;;;4357633;32;20079;-60
2022/04/07 15:17:09;;;;;;;5.40;1.48;;;8.60;88.00;;;;;;4345623;32;20538;-59
2022/04/07 15:19:37;;;;;;;1.70;1.27;;;8.60;88.20;;;;;;4359698;32;20165;-59
2022/04/07 15:22:07;;;;;;;6.32;1.65;;;8.60;88.50;;;;;;4363873;32;20066;-59
2022/04/07 15:24:33;;;;;;;3.28;1.58;;;8.60;88.90;;;;;;4343767;33;20085;-60
2022/04/07 15:26:59;;;;;;;1.25;0.95;;;8.50;89.10;;;;;;4349629;33;20525;-60
2022/04/07 15:29:26;;;;;;;4.07;1.45;;;8.50;88.90;;;;;;4348635;33;20525;-60
2022/04/07 15:31:52;;;;;;;2.60;1.62;;;8.50;89.40;;;;;;4348573;33;20075;-60
2022/04/07 15:34:18;;;;;;;4.72;1.65;;;8.40;89.60;;;;;;4334881;33;20105;-59
2022/04/07 15:36:45;;;;;;;3.92;1.33;;;8.50;89.50;;;;;;4348555;33;20071;-60
2022/04/07 15:39:11;;;;;;;2.03;1.20;;;8.40;89.80;;;;;;4350016;33;20073;-60
2022/04/07 15:41:38;;;;;;;2.20;1.20;;;8.40;89.90;;;;;;4348907;33;20160;-58
2022/04/07 15:44:04;;;;;;;5.87;1.70;;;8.40;90.10;;;;;;4335631;33;20167;-60
2022/04/07 15:46:30;;;;;;;2.30;1.15;;;8.50;90.30;;;;;;4335605;33;20190;-59
2022/04/07 15:48:57;;;;;;;4.37;1.40;;;8.40;90.50;;;;;;4349376;33;20078;-60
2022/04/07 15:51:23;;;;;;;3.67;1.42;;;8.40;90.60;;;;;;4335174;33;20153;-59
2022/04/07 15:53:50;;;;;;;3.67;1.50;;;8.30;90.70;;;;;;4348400;33;20158;-60
2022/04/07 15:56:17;;;;;;;3.65;1.35;;;8.40;90.80;;;;;;4348129;33;20083;-59
2022/04/07 15:58:43;;;;;;;4.57;1.83;;;8.50;90.80;;;;;;4348243;33;20075;-60
2022/04/07 16:01:10;;;;;;;5.85;1.48;;;8.40;90.90;;;;;;4347711;32;20091;-60
2022/04/07 16:03:36;;;;;;;3.12;1.55;;;8.40;91.00;;;;;;4348113;33;20102;-61
2022/04/07 16:06:02;;;;;;;3.65;1.50;;;8.40;91.00;;;;;;4322906;33;20083;-60
2022/04/07 16:08:29;;;;;;;2.83;1.55;;;8.40;91.00;;;;;;4347929;33;20078;-63
2022/04/07 16:10:55;;;;;;;2.70;1.40;;;8.40;91.10;;;;;;4347758;33;20082;-61
2022/04/07 16:13:22;;;;;;;8.27;1.73;;;8.40;91.20;;;;;;4348395;33;20081;-60
2022/04/07 16:15:49;;;;;;;3.50;1.52;;;8.30;91.30;;;;;;4333986;33;20074;-60
2022/04/07 16:18:16;;;;;;;4.68;1.50;;;8.40;91.40;;;;;;4347955;33;20117;-60
2022/04/07 16:20:42;;;;;;;3.05;1.90;;;8.30;91.40;;;;;;4347789;33;20458;-60
2022/04/07 16:23:09;;;;;;;5.87;1.60;;;8.30;91.50;;;;;;4347910;33;20173;-60
2022/04/07 16:25:36;;;;;;;7.80;1.80;;;8.30;91.70;;;;;;4334404;33;20067;-61
2022/04/07 16:28:02;;;;;;;2.15;1.35;;;8.40;91.70;;;;;;4334389;33;20085;-59
2022/04/07 16:30:29;;;;;;;3.30;1.40;;;8.30;91.80;;;;;;4334002;33;20145;-61
2022/04/07 16:32:55;;;;;;;5.22;1.73;;;8.30;92.00;;;;;;4347859;33;20108;-59
2022/04/07 16:35:22;;;;;;;5.75;1.48;;;8.30;92.10;;;;;;4347137;32;20486;-60
2022/04/07 16:37:48;;;;;;;5.00;1.37;;;8.20;92.00;;;;;;4334368;33;20090;-59
2022/04/07 16:40:16;;;;;;;2.80;1.42;;;8.20;92.10;;;;;;4321532;33;20146;-60
2022/04/07 16:42:43;;;;;;;2.10;1.30;;;8.20;92.20;;;;;;4347602;33;20101;-59
2022/04/07 16:45:09;;;;;;;2.97;1.58;;;8.20;92.00;;;;;;4347194;33;20090;-61
2022/04/07 16:47:36;;;;;;;2.62;1.10;;;8.20;91.70;;;;;;4321609;33;20094;-60
2022/04/07 16:50:02;;;;;;;2.78;1.30;;;8.10;91.60;;;;;;4334704;33;20162;-60
2022/04/07 16:52:29;;;;;;;2.15;1.37;;;8.10;91.50;;;;;;4347125;33;20125;-60
2022/04/07 16:54:55;;;;;;;1.50;1.17;;;8.20;91.00;;;;;;4333828;33;20071;-60
2022/04/07 16:57:21;;;;;;;3.33;1.00;;;8.10;91.00;;;;;;4347193;33;20090;-61
2022/04/07 16:59:51;;;;;;;1.67;1.17;;;8.20;90.60;;;;;;4320974;32;20097;-60
2022/04/07 17:02:18;;;;;;;2.55;1.20;;;8.10;90.90;;;;;;4347232;33;20168;-61
2022/04/07 17:04:44;;;;;;;2.00;1.15;;;8.20;90.60;;;;;;4347072;33;20441;-60
2022/04/07 17:07:11;;;;;;;3.83;0.93;;;8.20;90.40;;;;;;4321335;33;20169;-60
2022/04/07 17:09:37;;;;;;;0.95;0.80;;;8.30;90.10;;;;;;4332988;33;20477;-61
2022/04/07 17:12:12;;;;;;;3.10;1.10;;;8.30;89.70;;;;;;4346934;33;20109;-60
2022/04/07 17:14:38;;;;;;;2.53;0.85;;;8.30;89.00;;;;;;4347854;33;20081;-60
2022/04/07 17:17:05;;;;;;;1.17;0.70;;;8.30;89.10;;;;;;4333281;33;20155;-60
2022/04/07 17:19:31;;;;;;;1.67;0.85;;;8.40;88.50;;;;;;4333293;33;20150;-61
2022/04/07 17:22:00;;;;;;;1.17;1.00;;;8.40;88.30;;;;;;4333300;33;20174;-60
2022/04/07 17:24:27;;;;;;;2.62;1.40;;;8.40;88.50;;;;;;4346993;33;20071;-60
2022/04/07 17:26:53;;;;;;;2.00;0.93;;;8.50;88.00;;;;;;4332800;33;20460;-61
2022/04/07 17:29:20;;;;;;;1.23;0.80;;;8.40;87.90;;;;;;4346627;33;20078;-60
2022/04/07 17:31:46;;;;;;;3.85;1.00;;;8.50;88.00;;;;;;4347313;33;20090;-60
2022/04/07 17:34:12;;;;;;;1.55;1.08;;;8.50;87.50;;;;;;4320941;33;20070;-61
2022/04/07 17:36:39;;;;;;;2.35;1.15;;;8.40;87.70;;;;;;4346977;33;20438;-60
2022/04/07 17:39:05;;;;;;;5.62;1.30;;;8.50;87.80;;;;;;4346702;33;20074;-60
2022/04/07 17:41:31;;;;;;;2.78;0.93;;;8.50;87.90;;;;;;4333079;33;20082;-60
2022/04/07 17:43:58;;;;;;;4.00;1.10;;;8.50;87.90;;;;;;4346756;33;20063;-61
2022/04/07 17:46:24;;;;;;;2.20;0.98;;;8.50;88.10;;;;;;4346568;33;20156;-59
2022/04/07 17:48:50;;;;;;;1.73;1.10;;;8.50;88.30;;;;;;4333617;33;20113;-60
2022/04/07 17:51:17;;;;;;;3.80;1.25;;;8.60;88.50;;;;;;4333238;33;20133;-60
2022/04/07 17:53:43;;;;;;;1.45;1.00;;;8.60;89.80;;;;;;4332995;33;20082;-60
2022/04/07 17:56:12;;;;;;;4.50;1.00;;;8.50;88.80;;;;;;4346984;33;20106;-60
2022/04/07 17:58:42;;;;;;;0.90;0.85;;;8.50;89.20;;;;;;4346853;33;20504;-61
2022/04/07 18:01:11;;;;;;;3.33;1.00;;;8.50;89.30;;;;;;4332759;33;20184;-60
2022/04/07 18:03:38;;;;;;;2.85;1.10;;;8.50;89.60;;;;;;4332893;33;20477;-60
2022/04/07 18:06:05;;;;;;;1.73;0.77;;;8.50;89.80;;;;;;4333003;33;20157;-60
2022/04/07 18:08:34;;;;;;;1.70;0.75;;;8.50;90.00;;;;;;4333165;33;20093;-60
2022/04/07 18:11:06;;;;;;;2.08;1.00;;;8.50;90.00;;;;;;4333615;33;20070;-60
2022/04/07 18:13:32;;;;;;;1.80;0.75;;;8.60;90.10;;;;;;4333437;33;20101;-60
2022/04/07 18:16:00;;;;;;;2.17;1.00;;;8.60;90.10;;;;;;4346748;33;20075;-61
2022/04/07 18:18:27;;;;;;;2.60;0.93;;;8.60;90.00;;;;;;4320813;33;20509;-61
2022/04/07 18:20:54;;;;;;;2.28;1.17;;;8.60;90.20;;;;;;4346380;33;20098;-60
2022/04/07 18:23:20;;;;;;;2.97;1.00;;;8.60;90.20;;;;;;4332868;33;20087;-60
2022/04/07 18:25:46;;;;;;;2.03;1.37;;;8.70;90.10;;;;;;4332736;33;20603;-60
2022/04/07 18:28:14;;;;;;;1.37;1.10;;;8.70;89.80;;;;;;4346377;33;20075;-60
2022/04/07 18:30:43;;;;;;;2.12;1.23;;;8.70;90.10;;;;;;4346449;33;20081;-60
2022/04/07 18:33:10;;;;;;;0.88;0.75;;;8.80;90.00;;;;;;4346320;33;20510;-61
2022/04/07 18:35:36;;;;;;;1.42;0.88;;;8.70;89.70;;;;;;4346148;33;20083;-61
2022/04/07 18:38:03;;;;;;;2.75;1.00;;;8.80;89.70;;;;;;4333195;33;20094;-60
2022/04/07 18:40:29;;;;;;;2.00;1.08;;;8.80;89.90;;;;;;4346292;33;20100;-60
2022/04/07 18:42:55;;;;;;;4.20;1.23;;;8.90;89.40;;;;;;4332778;33;20519;-59
2022/04/07 18:45:22;;;;;;;1.90;0.90;;;8.90;89.60;;;;;;4346243;33;20154;-60
2022/04/07 18:47:48;;;;;;;3.72;0.95;;;8.90;89.60;;;;;;4332732;33;20085;-61
2022/04/07 18:50:15;;;;;;;2.58;1.20;;;9.00;89.70;;;;;;4335786;33;20085;-60
2022/04/07 18:52:41;;;;;;;1.60;1.42;;;9.00;89.60;;;;;;4349756;33;20064;-60
2022/04/07 18:55:10;;;;;;;3.50;1.70;;;9.00;89.60;;;;;;4335327;33;20493;-60
2022/04/07 18:57:37;;;;;;;2.58;1.05;;;8.90;90.00;;;;;;4332500;33;20079;-60
2022/04/07 19:00:09;;;;;;;2.72;1.30;;;8.90;90.10;;;;;;4348638;32;20480;-60
2022/04/07 19:02:36;;;;;;;1.60;1.40;;;9.00;90.20;;;;;;4349029;33;20097;-60
2022/04/07 19:05:08;;;;;;;2.72;1.48;;;9.00;90.30;;;;;;4335600;33;20081;-60
2022/04/07 19:07:34;;;;;;;1.98;1.27;;;9.00;90.40;;;;;;4323421;33;20168;-60
2022/04/07 19:10:01;;;;;;;1.40;1.30;;;9.00;90.60;;;;;;4335683;33;20171;-60
2022/04/07 19:12:27;;;;;;;2.33;1.20;;;8.90;90.90;;;;;;4332500;33;20095;-60
2022/04/07 19:14:54;;;;;;;3.15;1.50;;;9.00;91.00;;;;;;4334569;33;20105;-61
2022/04/07 19:17:20;;;;;;;2.12;1.40;;;9.00;91.10;;;;;;4320675;33;20415;-61
2022/04/07 19:19:47;;;;;;;2.35;1.60;;;9.00;91.30;;;;;;4334567;33;20171;-60
2022/04/07 19:22:14;;;;;;;2.08;1.65;;;8.90;91.50;;;;;;4332648;33;20161;-60
2022/04/07 19:24:42;;;;;;;2.10;1.50;;;9.00;91.60;;;;;;4333028;33;20501;-60
2022/04/07 19:27:09;;;;;;;4.68;1.58;;;9.00;91.70;;;;;;4333964;33;20102;-60
2022/04/07 19:29:36;;;;;;;3.08;1.52;;;9.00;92.00;;;;;;4333612;33;20075;-60
2022/04/07 19:32:03;;;;;;;1.60;1.50;;;9.00;92.20;;;;;;4333806;33;20095;-60
2022/04/07 19:34:29;;;;;;;1.67;1.40;;;9.00;92.40;;;;;;4333797;33;20086;-60
2022/04/07 19:36:55;;;;;;;3.03;1.77;;;9.10;93.20;;;;;;4320150;33;20521;-61
2022/04/07 19:39:22;;;;;;;3.80;1.48;;;9.10;92.80;;;;;;4333745;33;20090;-61
2022/04/07 19:41:48;;;;;;;1.73;1.48;;;9.10;92.90;;;;;;4332187;33;20106;-60
2022/04/07 19:44:14;;;;;;;1.62;1.48;;;9.10;93.00;;;;;;4333434;33;20090;-60
2022/04/07 19:46:41;;;;;;;4.12;1.23;;;9.20;93.10;;;;;;4333586;33;20094;-60
2022/04/07 19:49:07;;;;;;;2.28;1.62;;;9.10;93.10;;;;;;4333771;33;20156;-59
2022/04/07 19:51:33;;;;;;;2.97;1.70;;;9.20;93.10;;;;;;4320704;33;20153;-60
2022/04/07 19:54:00;;;;;;;3.08;1.70;;;9.20;93.10;;;;;;4333446;33;20075;-60
2022/04/07 19:56:26;;;;;;;2.00;1.62;;;9.30;93.30;;;;;;4332086;33;20155;-60
2022/04/07 19:58:52;;;;;;;2.28;1.70;;;9.30;93.60;;;;;;4333207;33;20524;-60
2022/04/07 20:01:19;;;;;;;2.55;1.58;;;9.40;93.90;;;;;;4331973;33;20080;-61
2022/04/07 20:03:45;;;;;;;4.22;1.90;;;9.40;94.20;;;;;;4331980;33;20075;-60
2022/04/07 20:08:21;;;;;;;2.78;1.60;;;9.40;94.50;;;;;;3857387;37;20062;-60
2022/04/07 20:10:47;;;;;;;2.62;1.77;;;9.40;95.10;;;;;;4419895;32;20070;-59
2022/04/07 20:13:14;;;;;;;3.05;1.52;;;9.50;95.80;;;;;;4405414;32;20517;-60
2022/04/07 20:15:41;;;;;;;6.45;2.08;;;9.40;95.80;;;;;;4419803;32;20087;-59
2022/04/07 20:18:07;;;;;;;3.58;2.10;;;9.50;96.10;;;;;;4419992;32;20070;-61
2022/04/07 20:20:33;;;;;;;2.60;1.83;;;9.50;96.40;;;;;;4417878;32;20469;-61
2022/04/07 20:23:00;;;;;;;2.22;1.80;;;9.50;96.90;;;;;;4419630;32;20137;-60
2022/04/07 20:25:26;;;;;;;2.20;1.80;;;9.50;97.20;;;;;;4418218;32;20068;-59
2022/04/07 20:27:52;;;;;;;2.72;2.00;;;9.40;97.60;;;;;;4419674;32;20105;-60
2022/04/07 20:30:22;;;;;;;2.85;2.00;;;9.40;98.10;;;;;;4405330;32;20148;-62
2022/04/07 20:32:49;;;;;;;1.95;1.80;;;9.40;98.50;;;;;;4418175;32;20148;-60
2022/04/07 20:35:15;;;;;;;2.50;1.95;;;9.40;98.90;;;;;;4419739;32;20547;-59
2022/04/07 20:37:42;;;;;;;3.62;2.03;;;9.50;99.30;;;;;;4419411;32;20080;-60
2022/04/07 20:40:28;;;;;;;2.83;2.00;;;9.60;99.70;;;;;;4407685;32;20594;-60
2022/04/07 20:43:14;;;;;;;2.40;1.92;;;9.60;99.90;;;;;;4418362;32;20100;-60
2022/04/07 20:45:43;;;;;;;2.55;1.98;;;9.70;99.90;;;;;;4418871;32;20085;-60
2022/04/07 20:48:09;;;;;;;2.33;2.00;;;9.70;99.90;;;;;;4418174;32;20149;-60
2022/04/07 20:50:36;;;;;;;2.67;2.05;;;9.70;99.90;;;;;;4406156;32;20089;-60
2022/04/07 20:53:02;;;;;;;2.65;2.10;;;9.70;99.90;;;;;;4419885;32;20259;-61
2022/04/07 20:55:29;;;;;;;3.30;2.33;;;9.70;99.90;;;;;;4421587;32;20670;-59
2022/04/07 20:57:55;;;;;;;3.22;2.03;;;9.70;99.90;;;;;;4419740;32;20096;-60
2022/04/07 21:00:21;;;;;;;2.62;1.83;;;9.60;99.90;;;;;;4422389;32;20083;-59
2022/04/07 21:02:48;;;;;;;2.78;2.03;;;9.90;99.90;;;;;;4434018;32;20080;-61
2022/04/07 21:05:14;;;;;;;3.20;2.12;;;10.40;99.90;;;;;;4423369;32;20097;-60
2022/04/07 21:07:41;;;;;;;4.15;2.12;;;9.00;99.90;;;;;;4404722;32;20081;-60
2022/04/07 21:10:07;;;;;;;2.53;2.03;;;9.90;99.90;;;;;;4419735;32;20145;-59
2022/04/07 21:12:34;;;;;;;2.45;2.12;;;9.90;99.90;;;;;;4419030;32;20081;-59
2022/04/07 21:15:00;;;;;;;2.25;1.90;;;10.00;99.90;;;;;;4419426;32;20085;-60
2022/04/07 21:17:26;;;;;;;2.37;2.10;;;9.60;99.90;;;;;;4417494;32;20084;-59
2022/04/07 21:19:54;;;;;;;3.37;2.30;;;10.00;99.90;;;;;;4408383;32;20512;-60
2022/04/07 21:22:20;;;;;;;5.28;2.35;;;10.20;99.90;;;;;;4408029;32;20507;-60
2022/04/07 21:24:47;;;;;;;2.30;2.03;;;10.10;99.90;;;;;;4408983;32;20073;-59
2022/04/07 21:27:13;;;;;;;2.65;2.28;;;10.10;99.90;;;;;;4410134;32;20069;-60
2022/04/07 21:29:39;;;;;;;2.70;2.15;;;10.10;99.90;;;;;;4422067;32;20166;-60
2022/04/07 21:32:06;;;;;;;3.78;2.37;;;10.00;99.90;;;;;;4413406;32;20450;-60
2022/04/07 21:34:33;;;;;;;3.00;2.20;;;10.00;99.90;;;;;;4417819;32;20085;-60
2022/04/07 21:36:59;;;;;;;2.97;2.35;;;10.00;99.90;;;;;;4419227;32;20087;-60
2022/04/07 21:39:25;;;;;;;2.75;2.08;;;10.00;99.90;;;;;;4414236;32;20081;-61
2022/04/07 21:41:52;;;;;;;3.03;2.20;;;10.00;99.90;;;;;;4414773;32;20077;-60
2022/04/07 21:44:19;;;;;;;2.58;2.20;;;10.00;99.90;;;;;;4409431;32;20073;-60
2022/04/07 21:46:45;;;;;;;2.37;2.05;;;9.90;99.90;;;;;;4394281;32;20085;-60
2022/04/07 21:49:11;;;;;;;2.97;2.30;;;9.90;99.90;;;;;;4394153;32;20073;-60
2022/04/07 21:52:54;;;;;;;2.60;1.95;;;9.80;99.90;;;;;;3857267;37;20058;-59
2022/04/07 21:55:20;;;;;;;2.72;2.30;;;9.70;99.90;;;;;;4405940;32;20180;-60
2022/04/07 21:57:47;;;;;;;3.05;2.30;;;9.60;99.90;;;;;;4419598;32;20072;-60
2022/04/07 22:00:15;;;;;;;3.12;1.87;;;9.60;99.90;;;;;;4416023;32;20084;-60
2022/04/07 22:02:42;;;;;;;2.90;2.20;;;9.60;99.90;;;;;;4403464;32;20078;-60
2022/04/07 22:05:09;;;;;;;3.53;2.30;;;9.50;99.90;;;;;;4403037;32;20242;-60
2022/04/07 22:07:36;;;;;;;3.05;2.42;;;9.70;99.90;;;;;;4404540;32;20077;-60
2022/04/07 22:10:04;;;;;;;3.30;2.53;;;9.50;99.90;;;;;;4403036;32;20089;-60
2022/04/07 22:12:30;;;;;;;3.33;2.08;;;9.40;99.90;;;;;;4404061;32;20169;-60
2022/04/07 22:14:56;;;;;;;4.20;2.53;;;9.20;99.90;;;;;;4402517;32;20604;-61
2022/04/07 22:17:24;;;;;;;2.47;2.28;;;9.30;99.90;;;;;;4403609;32;20077;-60
2022/04/07 22:19:50;;;;;;;3.40;2.30;;;9.40;99.90;;;;;;4404324;32;20086;-62
2022/04/07 22:22:17;;;;;;;5.07;2.55;;;9.30;99.90;;;;;;4390131;32;20169;-60
2022/04/07 22:24:44;;;;;;;3.58;2.70;;;9.30;99.90;;;;;;4403883;32;20077;-61
2022/04/07 22:27:10;;;;;;;3.03;2.62;;;9.30;99.90;;;;;;4404361;32;20517;-60
2022/04/07 22:29:36;;;;;;;3.10;2.53;;;9.20;99.90;;;;;;4402818;32;20078;-61
2022/04/07 22:32:04;;;;;;;4.85;2.60;;;9.20;99.90;;;;;;4404131;32;20074;-60
2022/04/07 22:34:30;;;;;;;4.30;2.70;;;9.10;99.90;;;;;;4404333;32;20078;-60
2022/04/07 22:36:56;;;;;;;3.53;2.70;;;9.10;99.90;;;;;;4402769;32;20100;-60
2022/04/07 22:39:23;;;;;;;4.40;2.50;;;8.90;99.90;;;;;;4403784;32;20080;-60
2022/04/07 22:41:49;;;;;;;3.70;2.80;;;9.00;99.90;;;;;;4415252;32;20081;-60
2022/04/07 22:44:15;;;;;;;4.05;2.90;;;8.90;99.90;;;;;;4404015;32;20094;-59
2022/04/07 22:46:42;;;;;;;6.35;2.80;;;8.90;99.90;;;;;;4404070;32;20451;-60
2022/04/07 22:49:08;;;;;;;4.32;3.00;;;8.90;99.90;;;;;;4403952;32;20085;-60
2022/04/07 22:51:34;;;;;;;3.42;2.80;;;8.80;99.90;;;;;;4403301;32;20090;-61
2022/04/07 22:54:01;;;;;;;5.18;2.75;;;8.90;99.90;;;;;;4404075;32;20089;-60
2022/04/07 22:56:27;;;;;;;4.47;2.80;;;8.90;99.90;;;;;;4403670;32;20091;-61
2022/04/07 22:58:53;;;;;;;4.65;2.70;;;8.80;99.90;;;;;;4404220;32;20093;-61
2022/04/07 23:01:19;;;;;;;3.15;2.60;;;8.80;99.90;;;;;;4403700;32;20077;-61
2022/04/07 23:03:46;;;;;;;3.60;2.92;;;8.70;99.90;;;;;;4395560;32;20066;-61
2022/04/07 23:06:12;;;;;;;4.43;2.78;;;8.70;99.90;;;;;;4392097;32;20534;-60
2022/04/07 23:08:38;;;;;;;3.72;2.78;;;8.70;99.90;;;;;;4393747;32;20503;-61
2022/04/07 23:11:05;;;;;;;4.72;3.12;;;8.70;99.90;;;;;;4393722;32;20089;-60
2022/04/07 23:13:31;;;;;;;5.22;3.00;;;8.70;99.90;;;;;;4393810;32;20070;-60
2022/04/07 23:15:57;;;;;;;4.05;3.03;;;8.70;99.90;;;;;;4393577;32;20101;-60
2022/04/07 23:18:24;;;;;;;4.97;3.05;;;8.60;99.90;;;;;;4392252;32;20085;-60
2022/04/07 23:20:54;;;;;;;4.25;2.62;;;8.60;99.90;;;;;;4393124;32;20085;-60
2022/04/07 23:23:21;;;;;;;4.20;3.00;;;8.60;99.90;;;;;;4391656;32;20112;-60
2022/04/07 23:25:47;;;;;;;4.32;3.10;;;8.70;99.90;;;;;;4393050;32;20162;-60
2022/04/07 23:28:14;;;;;;;4.35;2.78;;;8.60;99.90;;;;;;4391965;32;20512;-60
2022/04/07 23:30:41;;;;;;;5.28;3.08;;;8.60;99.90;;;;;;4378744;32;20100;-59
2022/04/07 23:33:08;;;;;;;4.65;2.92;;;8.60;99.90;;;;;;4391540;32;20080;-60
2022/04/07 23:35:34;;;;;;;4.03;2.70;;;8.50;99.90;;;;;;4391743;32;20178;-59
2022/04/07 23:38:02;;;;;;;5.30;3.10;;;8.50;99.90;;;;;;4393100;32;20180;-61
2022/04/07 23:40:30;;;;;;;4.82;3.10;;;8.50;99.90;;;;;;4391519;32;20081;-61
2022/04/07 23:42:57;;;;;;;4.35;3.25;;;8.40;99.90;;;;;;4392815;32;20171;-60
2022/04/07 23:45:24;;;;;;;4.75;3.25;;;8.40;99.90;;;;;;4393214;32;20089;-60
2022/04/07 23:47:50;;;;;;;5.07;3.47;;;8.30;99.90;;;;;;4393109;32;20089;-60
2022/04/07 23:50:17;;;;;;;6.15;3.33;;;8.30;99.90;;;;;;4379249;32;20156;-60
2022/04/07 23:52:43;;;;;;;5.32;3.53;;;8.30;99.90;;;;;;4391586;32;20163;-60
2022/04/07 23:55:10;;;;;;;5.00;3.40;;;;;;;;;;4393318;32;20432;-60
2022/04/07 23:57:37;;;;;;;5.15;3.33;;;;;;;;;;4391344;32;20108;-61
